Summersville, WV (26651)

1:56 PM EST on February 22, 2017 (GMT -0500)
Summersville | | Change Station

Elev 1932 ft 38.30 °N, 80.84 °W | Updated 32 seconds ago

Overcast
Overcast
53.6 °F
Feels Like 53.6 °F
N
0.0
Wind Variable Wind from SW

Today
High -- | Low -- °F
--% Chance of Precip.
Yesterday
High -- | Low -- °F
Precip. -- in
Pressure 29.93 in
Visibility 9.0 miles
Clouds Scattered Clouds 1900 ft
Mostly Cloudy 2600 ft
Overcast 5500 ft
Dew Point 51 °F
Humidity 90%
Rainfall 0.45 in
Snow Depth Not available.
7:04 AM 6:09 PM
Waning Crescent, 15% visible
METAR KBKW 221851Z AUTO 14003KT 9SM SCT019 BKN026 OVC055 12/11 A2994 RMK AO2 RAE40 SLP133 P0001 T01170106
Pressure 29.93 in
Visibility 9.0 miles
Clouds Scattered Clouds 1900 ft
Mostly Cloudy 2600 ft
Overcast 5500 ft
Dew Point 51 °F
Humidity 90%
Rainfall 0.45 in
Snow Depth Not available.
7:04 AM 6:09 PM
Waning Crescent, 15% visible
METAR KBKW 221851Z AUTO 14003KT 9SM SCT019 BKN026 OVC055 12/11 A2994 RMK AO2 RAE40 SLP133 P0001 T01170106

Get Your Daily Forecast Email!

Thanks for signing up!

Be on the lookout for a verification email in your inbox.

You'll start receiving the daily forecast at 8 AM.

×

10-Day Weather Forecast

Almanac

Astronomy

Feb. 22, 2017 Rise Set
Actual Time
Civil Twilight
Nautical Twilight
Astronomical Twilight
Moon
Length of Visible Light
Length of Day
Tomorrow will be .
, % of the Moon is Illuminated

Today's Extremes

State Highs State Lows

Community

WunderPhotos

Upload Photos

1,962,540 photos uploaded!

WunderBlog® & News

Nearby

Air Quality

  Air Quality AQ Index Pollutant
Not available.

Snow Depth

Station Depth Elevation

Earthquake Activity

City Distance Mag. Time & Date
Minimum magnitude displayed is 2.5.

Coastal Water Temperatures

Place Temperature

Stations

Nearby Weather Stations

Station Location Temp. Windchill Dew Point Humidity Wind Precip. Elev Updated Type
                   

Watches & Warnings

There are currently no watches in effect.